sensor_id;sensor_type;location;lat;lon;timestamp;P1;durP1;ratioP1;P2;durP2;ratioP2
42912;SDS011;50720;54.324;18.558;2023-09-08T00:00:00;10.23;;;4.13;;
42912;SDS011;50720;54.324;18.558;2023-09-08T00:03:09;7.82;;;4.53;;
42912;SDS011;50720;54.324;18.558;2023-09-08T00:05:56;6.93;;;4.75;;
42912;SDS011;50720;54.324;18.558;2023-09-08T00:08:43;7.70;;;4.05;;
42912;SDS011;50720;54.324;18.558;2023-09-08T00:11:30;6.00;;;4.20;;
42912;SDS011;50720;54.324;18.558;2023-09-08T00:14:17;7.30;;;4.53;;
42912;SDS011;50720;54.324;18.558;2023-09-08T00:17:04;8.63;;;4.43;;
42912;SDS011;50720;54.324;18.558;2023-09-08T00:19:52;6.53;;;3.58;;
42912;SDS011;50720;54.324;18.558;2023-09-08T00:22:39;8.82;;;4.45;;
42912;SDS011;50720;54.324;18.558;2023-09-08T00:25:26;5.40;;;3.88;;
42912;SDS011;50720;54.324;18.558;2023-09-08T00:28:13;7.70;;;4.32;;
42912;SDS011;50720;54.324;18.558;2023-09-08T00:31:00;7.78;;;4.78;;
42912;SDS011;50720;54.324;18.558;2023-09-08T00:33:47;7.88;;;4.57;;
42912;SDS011;50720;54.324;18.558;2023-09-08T00:36:36;6.00;;;4.38;;
42912;SDS011;50720;54.324;18.558;2023-09-08T00:39:23;9.75;;;5.00;;
42912;SDS011;50720;54.324;18.558;2023-09-08T00:42:10;12.95;;;6.45;;
42912;SDS011;50720;54.324;18.558;2023-09-08T00:44:58;8.30;;;5.05;;
42912;SDS011;50720;54.324;18.558;2023-09-08T00:47:44;8.32;;;6.43;;
42912;SDS011;50720;54.324;18.558;2023-09-08T00:50:32;10.15;;;6.55;;
42912;SDS011;50720;54.324;18.558;2023-09-08T00:53:20;9.48;;;6.72;;
42912;SDS011;50720;54.324;18.558;2023-09-08T00:56:08;11.55;;;6.97;;
42912;SDS011;50720;54.324;18.558;2023-09-08T00:58:56;13.75;;;7.72;;
42912;SDS011;50720;54.324;18.558;2023-09-08T01:01:45;12.60;;;6.70;;
42912;SDS011;50720;54.324;18.558;2023-09-08T01:04:32;8.07;;;6.72;;
42912;SDS011;50720;54.324;18.558;2023-09-08T01:07:19;11.00;;;7.57;;
42912;SDS011;50720;54.324;18.558;2023-09-08T01:10:09;11.32;;;7.72;;
42912;SDS011;50720;54.324;18.558;2023-09-08T01:12:56;12.88;;;8.43;;
42912;SDS011;50720;54.324;18.558;2023-09-08T01:15:43;14.57;;;8.27;;
42912;SDS011;50720;54.324;18.558;2023-09-08T01:18:31;11.00;;;7.65;;
42912;SDS011;50720;54.324;18.558;2023-09-08T01:27:53;10.20;;;7.57;;
42912;SDS011;50720;54.324;18.558;2023-09-08T01:30:41;11.05;;;8.30;;
42912;SDS011;50720;54.324;18.558;2023-09-08T01:33:28;15.02;;;8.73;;
42912;SDS011;50720;54.324;18.558;2023-09-08T01:36:16;11.43;;;8.52;;
42912;SDS011;50720;54.324;18.558;2023-09-08T01:39:03;13.32;;;8.40;;
42912;SDS011;50720;54.324;18.558;2023-09-08T01:41:52;9.68;;;7.72;;
42912;SDS011;50720;54.324;18.558;2023-09-08T01:44:39;14.07;;;8.98;;
42912;SDS011;50720;54.324;18.558;2023-09-08T01:47:29;13.48;;;9.02;;
42912;SDS011;50720;54.324;18.558;2023-09-08T01:50:16;12.90;;;8.38;;
42912;SDS011;50720;54.324;18.558;2023-09-08T01:53:06;14.50;;;9.23;;
42912;SDS011;50720;54.324;18.558;2023-09-08T01:55:53;15.30;;;10.85;;
42912;SDS011;50720;54.324;18.558;2023-09-08T01:58:41;14.32;;;9.07;;
42912;SDS011;50720;54.324;18.558;2023-09-08T02:01:28;14.10;;;10.02;;
42912;SDS011;50720;54.324;18.558;2023-09-08T02:04:15;14.65;;;8.88;;
42912;SDS011;50720;54.324;18.558;2023-09-08T02:07:02;14.65;;;8.38;;
42912;SDS011;50720;54.324;18.558;2023-09-08T02:09:50;14.73;;;9.90;;
42912;SDS011;50720;54.324;18.558;2023-09-08T02:12:37;12.65;;;8.48;;
42912;SDS011;50720;54.324;18.558;2023-09-08T02:15:25;11.18;;;7.95;;
42912;SDS011;50720;54.324;18.558;2023-09-08T02:18:12;9.85;;;8.05;;
42912;SDS011;50720;54.324;18.558;2023-09-08T02:21:00;14.75;;;8.82;;
42912;SDS011;50720;54.324;18.558;2023-09-08T02:23:47;9.85;;;8.57;;
42912;SDS011;50720;54.324;18.558;2023-09-08T02:26:34;12.85;;;9.77;;
42912;SDS011;50720;54.324;18.558;2023-09-08T02:29:21;14.35;;;9.10;;
42912;SDS011;50720;54.324;18.558;2023-09-08T02:32:10;14.40;;;8.10;;
42912;SDS011;50720;54.324;18.558;2023-09-08T02:34:58;9.02;;;7.47;;
42912;SDS011;50720;54.324;18.558;2023-09-08T02:37:46;8.15;;;7.22;;
42912;SDS011;50720;54.324;18.558;2023-09-08T02:40:32;11.20;;;7.97;;
42912;SDS011;50720;54.324;18.558;2023-09-08T02:43:20;10.88;;;8.25;;
42912;SDS011;50720;54.324;18.558;2023-09-08T02:46:06;11.60;;;7.60;;
42912;SDS011;50720;54.324;18.558;2023-09-08T02:48:56;12.23;;;7.95;;
42912;SDS011;50720;54.324;18.558;2023-09-08T02:51:43;9.32;;;7.18;;
42912;SDS011;50720;54.324;18.558;2023-09-08T02:54:30;12.27;;;7.20;;
42912;SDS011;50720;54.324;18.558;2023-09-08T02:57:17;10.43;;;7.50;;
42912;SDS011;50720;54.324;18.558;2023-09-08T03:00:05;13.88;;;8.55;;
42912;SDS011;50720;54.324;18.558;2023-09-08T03:02:52;11.63;;;7.88;;
42912;SDS011;50720;54.324;18.558;2023-09-08T03:05:42;9.82;;;7.45;;
42912;SDS011;50720;54.324;18.558;2023-09-08T03:08:29;9.43;;;7.63;;
42912;SDS011;50720;54.324;18.558;2023-09-08T03:11:16;8.93;;;6.82;;
42912;SDS011;50720;54.324;18.558;2023-09-08T03:14:03;11.32;;;7.68;;
42912;SDS011;50720;54.324;18.558;2023-09-08T03:16:50;9.57;;;7.15;;
42912;SDS011;50720;54.324;18.558;2023-09-08T03:19:37;10.82;;;6.95;;
42912;SDS011;50720;54.324;18.558;2023-09-08T03:22:26;9.00;;;7.43;;
42912;SDS011;50720;54.324;18.558;2023-09-08T03:25:13;10.48;;;7.50;;
42912;SDS011;50720;54.324;18.558;2023-09-08T03:28:00;9.45;;;7.20;;
42912;SDS011;50720;54.324;18.558;2023-09-08T03:30:47;10.40;;;6.53;;
42912;SDS011;50720;54.324;18.558;2023-09-08T03:33:34;9.20;;;7.25;;
42912;SDS011;50720;54.324;18.558;2023-09-08T03:36:22;9.70;;;7.40;;
42912;SDS011;50720;54.324;18.558;2023-09-08T03:39:11;13.40;;;6.88;;
42912;SDS011;50720;54.324;18.558;2023-09-08T03:41:58;11.27;;;6.32;;
42912;SDS011;50720;54.324;18.558;2023-09-08T03:44:45;11.40;;;6.80;;
42912;SDS011;50720;54.324;18.558;2023-09-08T03:47:32;10.68;;;7.68;;
42912;SDS011;50720;54.324;18.558;2023-09-08T03:50:19;19.10;;;7.57;;
42912;SDS011;50720;54.324;18.558;2023-09-08T03:53:06;8.68;;;6.93;;
42912;SDS011;50720;54.324;18.558;2023-09-08T03:55:55;12.23;;;6.75;;
42912;SDS011;50720;54.324;18.558;2023-09-08T03:58:42;15.68;;;6.80;;
42912;SDS011;50720;54.324;18.558;2023-09-08T04:01:29;12.75;;;7.00;;
42912;SDS011;50720;54.324;18.558;2023-09-08T04:04:16;8.48;;;6.80;;
42912;SDS011;50720;54.324;18.558;2023-09-08T04:07:04;11.40;;;7.20;;
42912;SDS011;50720;54.324;18.558;2023-09-08T04:09:52;14.23;;;7.18;;
42912;SDS011;50720;54.324;18.558;2023-09-08T04:12:40;12.30;;;7.47;;
42912;SDS011;50720;54.324;18.558;2023-09-08T04:15:27;9.07;;;6.70;;
42912;SDS011;50720;54.324;18.558;2023-09-08T04:18:14;14.45;;;8.07;;
42912;SDS011;50720;54.324;18.558;2023-09-08T04:21:01;11.73;;;6.85;;
42912;SDS011;50720;54.324;18.558;2023-09-08T04:23:49;17.98;;;7.70;;
42912;SDS011;50720;54.324;18.558;2023-09-08T04:26:36;20.90;;;6.78;;
42912;SDS011;50720;54.324;18.558;2023-09-08T04:29:24;15.63;;;7.10;;
42912;SDS011;50720;54.324;18.558;2023-09-08T04:32:11;16.65;;;7.50;;
42912;SDS011;50720;54.324;18.558;2023-09-08T04:34:59;17.98;;;7.97;;
42912;SDS011;50720;54.324;18.558;2023-09-08T04:37:45;9.43;;;7.43;;
42912;SDS011;50720;54.324;18.558;2023-09-08T04:40:33;10.13;;;7.28;;
42912;SDS011;50720;54.324;18.558;2023-09-08T04:43:20;14.52;;;8.40;;
42912;SDS011;50720;54.324;18.558;2023-09-08T04:46:09;12.55;;;7.45;;
42912;SDS011;50720;54.324;18.558;2023-09-08T04:48:56;10.98;;;6.88;;
42912;SDS011;50720;54.324;18.558;2023-09-08T04:51:44;10.77;;;6.22;;
42912;SDS011;50720;54.324;18.558;2023-09-08T04:54:31;12.00;;;7.35;;
42912;SDS011;50720;54.324;18.558;2023-09-08T04:57:18;12.27;;;7.25;;
42912;SDS011;50720;54.324;18.558;2023-09-08T05:00:05;9.95;;;6.95;;
42912;SDS011;50720;54.324;18.558;2023-09-08T05:02:55;16.27;;;7.78;;
42912;SDS011;50720;54.324;18.558;2023-09-08T05:05:41;17.40;;;6.53;;
42912;SDS011;50720;54.324;18.558;2023-09-08T05:08:29;17.95;;;7.25;;
42912;SDS011;50720;54.324;18.558;2023-09-08T05:11:16;13.93;;;6.47;;
42912;SDS011;50720;54.324;18.558;2023-09-08T05:14:03;9.90;;;6.25;;
42912;SDS011;50720;54.324;18.558;2023-09-08T05:16:50;10.25;;;6.07;;
42912;SDS011;50720;54.324;18.558;2023-09-08T05:19:42;9.52;;;6.38;;
42912;SDS011;50720;54.324;18.558;2023-09-08T05:22:29;10.30;;;6.25;;
42912;SDS011;50720;54.324;18.558;2023-09-08T05:25:16;12.02;;;6.13;;
42912;SDS011;50720;54.324;18.558;2023-09-08T05:28:03;11.18;;;5.95;;
42912;SDS011;50720;54.324;18.558;2023-09-08T05:30:51;9.40;;;4.88;;
42912;SDS011;50720;54.324;18.558;2023-09-08T05:33:38;9.15;;;6.05;;
42912;SDS011;50720;54.324;18.558;2023-09-08T05:36:26;10.65;;;5.28;;
42912;SDS011;50720;54.324;18.558;2023-09-08T05:39:14;14.73;;;5.63;;
42912;SDS011;50720;54.324;18.558;2023-09-08T05:42:04;4.80;;;4.30;;
42912;SDS011;50720;54.324;18.558;2023-09-08T05:44:51;6.85;;;4.13;;
42912;SDS011;50720;54.324;18.558;2023-09-08T05:47:39;8.05;;;4.28;;
42912;SDS011;50720;54.324;18.558;2023-09-08T05:50:26;12.55;;;4.93;;
42912;SDS011;50720;54.324;18.558;2023-09-08T05:53:15;6.78;;;4.60;;
42912;SDS011;50720;54.324;18.558;2023-09-08T05:56:02;6.47;;;4.28;;
42912;SDS011;50720;54.324;18.558;2023-09-08T05:58:49;6.63;;;4.28;;
42912;SDS011;50720;54.324;18.558;2023-09-08T06:01:36;8.70;;;4.07;;
42912;SDS011;50720;54.324;18.558;2023-09-08T06:04:24;6.68;;;4.03;;
42912;SDS011;50720;54.324;18.558;2023-09-08T06:07:11;7.05;;;4.53;;
42912;SDS011;50720;54.324;18.558;2023-09-08T06:09:59;8.93;;;4.80;;
42912;SDS011;50720;54.324;18.558;2023-09-08T06:12:46;10.50;;;4.57;;
42912;SDS011;50720;54.324;18.558;2023-09-08T06:15:35;5.38;;;4.60;;
42912;SDS011;50720;54.324;18.558;2023-09-08T06:18:22;7.55;;;4.57;;
42912;SDS011;50720;54.324;18.558;2023-09-08T06:21:09;6.20;;;4.70;;
42912;SDS011;50720;54.324;18.558;2023-09-08T06:23:56;6.90;;;4.93;;
42912;SDS011;50720;54.324;18.558;2023-09-08T06:26:45;8.18;;;5.40;;
42912;SDS011;50720;54.324;18.558;2023-09-08T06:29:34;7.70;;;5.05;;
42912;SDS011;50720;54.324;18.558;2023-09-08T06:32:21;6.75;;;4.75;;
42912;SDS011;50720;54.324;18.558;2023-09-08T06:35:08;7.60;;;4.60;;
42912;SDS011;50720;54.324;18.558;2023-09-08T06:37:55;7.05;;;3.97;;
42912;SDS011;50720;54.324;18.558;2023-09-08T06:40:42;7.85;;;4.78;;
42912;SDS011;50720;54.324;18.558;2023-09-08T06:43:31;10.25;;;4.88;;
42912;SDS011;50720;54.324;18.558;2023-09-08T06:46:18;6.85;;;4.05;;
42912;SDS011;50720;54.324;18.558;2023-09-08T06:49:05;7.72;;;5.22;;
42912;SDS011;50720;54.324;18.558;2023-09-08T06:51:52;16.00;;;5.00;;
42912;SDS011;50720;54.324;18.558;2023-09-08T06:54:39;21.55;;;4.68;;
42912;SDS011;50720;54.324;18.558;2023-09-08T06:57:26;9.90;;;4.72;;
42912;SDS011;50720;54.324;18.558;2023-09-08T07:00:15;11.15;;;4.88;;
42912;SDS011;50720;54.324;18.558;2023-09-08T07:03:04;9.25;;;4.25;;
42912;SDS011;50720;54.324;18.558;2023-09-08T07:05:53;8.95;;;4.72;;
42912;SDS011;50720;54.324;18.558;2023-09-08T07:08:40;8.65;;;4.07;;
42912;SDS011;50720;54.324;18.558;2023-09-08T07:11:27;10.55;;;5.35;;
42912;SDS011;50720;54.324;18.558;2023-09-08T07:14:14;18.30;;;5.65;;
42912;SDS011;50720;54.324;18.558;2023-09-08T07:17:03;14.27;;;4.72;;
42912;SDS011;50720;54.324;18.558;2023-09-08T07:19:50;12.60;;;5.63;;
42912;SDS011;50720;54.324;18.558;2023-09-08T07:22:37;12.50;;;5.18;;
42912;SDS011;50720;54.324;18.558;2023-09-08T07:25:24;16.73;;;5.45;;
42912;SDS011;50720;54.324;18.558;2023-09-08T07:28:11;8.95;;;4.35;;
42912;SDS011;50720;54.324;18.558;2023-09-08T07:31:00;17.75;;;5.30;;
42912;SDS011;50720;54.324;18.558;2023-09-08T07:33:50;7.35;;;4.57;;
42912;SDS011;50720;54.324;18.558;2023-09-08T07:36:37;10.93;;;4.93;;
42912;SDS011;50720;54.324;18.558;2023-09-08T07:39:24;14.23;;;4.90;;
42912;SDS011;50720;54.324;18.558;2023-09-08T07:42:11;8.93;;;4.43;;
42912;SDS011;50720;54.324;18.558;2023-09-08T07:44:58;12.68;;;3.58;;
42912;SDS011;50720;54.324;18.558;2023-09-08T07:47:45;23.70;;;6.57;;
42912;SDS011;50720;54.324;18.558;2023-09-08T07:50:34;7.82;;;4.28;;
42912;SDS011;50720;54.324;18.558;2023-09-08T07:53:21;8.95;;;3.92;;
42912;SDS011;50720;54.324;18.558;2023-09-08T07:56:08;11.52;;;4.90;;
42912;SDS011;50720;54.324;18.558;2023-09-08T07:58:55;13.52;;;4.43;;
42912;SDS011;50720;54.324;18.558;2023-09-08T08:01:42;13.05;;;4.30;;
42912;SDS011;50720;54.324;18.558;2023-09-08T08:04:29;15.35;;;4.57;;
42912;SDS011;50720;54.324;18.558;2023-09-08T08:07:18;8.32;;;4.07;;
42912;SDS011;50720;54.324;18.558;2023-09-08T08:10:05;6.55;;;3.78;;
42912;SDS011;50720;54.324;18.558;2023-09-08T08:12:53;4.03;;;3.63;;
42912;SDS011;50720;54.324;18.558;2023-09-08T08:15:40;7.15;;;4.05;;
42912;SDS011;50720;54.324;18.558;2023-09-08T08:18:28;8.15;;;4.10;;
42912;SDS011;50720;54.324;18.558;2023-09-08T08:21:14;8.00;;;4.03;;
42912;SDS011;50720;54.324;18.558;2023-09-08T08:24:03;5.97;;;4.07;;
42912;SDS011;50720;54.324;18.558;2023-09-08T08:26:51;15.95;;;4.57;;
42912;SDS011;50720;54.324;18.558;2023-09-08T08:29:38;13.98;;;4.53;;
42912;SDS011;50720;54.324;18.558;2023-09-08T08:32:25;5.18;;;3.95;;
42912;SDS011;50720;54.324;18.558;2023-09-08T08:35:12;6.55;;;3.75;;
42912;SDS011;50720;54.324;18.558;2023-09-08T08:38:00;6.28;;;3.70;;
42912;SDS011;50720;54.324;18.558;2023-09-08T08:40:48;6.95;;;3.45;;
42912;SDS011;50720;54.324;18.558;2023-09-08T08:43:35;4.22;;;3.25;;
42912;SDS011;50720;54.324;18.558;2023-09-08T08:46:23;7.28;;;4.03;;
42912;SDS011;50720;54.324;18.558;2023-09-08T08:49:12;8.25;;;3.95;;
42912;SDS011;50720;54.324;18.558;2023-09-08T08:52:01;5.95;;;3.45;;
42912;SDS011;50720;54.324;18.558;2023-09-08T08:54:51;3.80;;;3.47;;
42912;SDS011;50720;54.324;18.558;2023-09-08T08:57:40;4.82;;;3.28;;
42912;SDS011;50720;54.324;18.558;2023-09-08T09:00:27;5.70;;;3.95;;
42912;SDS011;50720;54.324;18.558;2023-09-08T09:03:15;4.57;;;3.20;;
42912;SDS011;50720;54.324;18.558;2023-09-08T09:06:02;6.97;;;3.78;;
42912;SDS011;50720;54.324;18.558;2023-09-08T09:08:50;10.50;;;3.97;;
42912;SDS011;50720;54.324;18.558;2023-09-08T09:11:37;4.18;;;3.17;;
42912;SDS011;50720;54.324;18.558;2023-09-08T09:14:26;11.77;;;4.10;;
42912;SDS011;50720;54.324;18.558;2023-09-08T09:17:13;4.30;;;3.75;;
42912;SDS011;50720;54.324;18.558;2023-09-08T09:23:06;9.27;;;3.50;;
42912;SDS011;50720;54.324;18.558;2023-09-08T09:25:53;5.90;;;3.50;;
42912;SDS011;50720;54.324;18.558;2023-09-08T09:28:43;5.10;;;3.72;;
42912;SDS011;50720;54.324;18.558;2023-09-08T09:31:35;5.43;;;4.03;;
42912;SDS011;50720;54.324;18.558;2023-09-08T09:34:22;5.50;;;4.38;;
42912;SDS011;50720;54.324;18.558;2023-09-08T09:37:09;6.70;;;3.70;;
42912;SDS011;50720;54.324;18.558;2023-09-08T09:39:57;6.07;;;3.67;;
42912;SDS011;50720;54.324;18.558;2023-09-08T09:42:46;5.53;;;3.63;;
42912;SDS011;50720;54.324;18.558;2023-09-08T09:45:36;7.97;;;4.13;;
42912;SDS011;50720;54.324;18.558;2023-09-08T09:48:25;8.10;;;3.80;;
42912;SDS011;50720;54.324;18.558;2023-09-08T09:54:05;6.63;;;3.45;;
42912;SDS011;50720;54.324;18.558;2023-09-08T09:56:53;6.22;;;4.07;;
42912;SDS011;50720;54.324;18.558;2023-09-08T09:59:40;5.90;;;3.70;;
42912;SDS011;50720;54.324;18.558;2023-09-08T10:02:27;7.47;;;3.42;;
42912;SDS011;50720;54.324;18.558;2023-09-08T10:05:16;4.70;;;3.45;;
42912;SDS011;50720;54.324;18.558;2023-09-08T10:08:04;7.38;;;3.95;;
42912;SDS011;50720;54.324;18.558;2023-09-08T10:10:51;8.38;;;3.88;;
42912;SDS011;50720;54.324;18.558;2023-09-08T10:13:39;5.60;;;3.97;;
42912;SDS011;50720;54.324;18.558;2023-09-08T10:16:32;8.30;;;3.65;;
42912;SDS011;50720;54.324;18.558;2023-09-08T10:19:22;8.48;;;3.85;;
42912;SDS011;50720;54.324;18.558;2023-09-08T10:22:12;8.63;;;3.63;;
42912;SDS011;50720;54.324;18.558;2023-09-08T10:25:03;6.10;;;3.35;;
42912;SDS011;50720;54.324;18.558;2023-09-08T10:27:52;14.20;;;4.83;;
42912;SDS011;50720;54.324;18.558;2023-09-08T10:30:40;14.88;;;5.72;;
42912;SDS011;50720;54.324;18.558;2023-09-08T10:33:28;13.55;;;6.10;;
42912;SDS011;50720;54.324;18.558;2023-09-08T10:36:15;11.77;;;6.22;;
42912;SDS011;50720;54.324;18.558;2023-09-08T10:42:20;9.25;;;5.70;;
42912;SDS011;50720;54.324;18.558;2023-09-08T10:45:14;13.50;;;6.15;;
42912;SDS011;50720;54.324;18.558;2023-09-08T10:48:02;8.75;;;5.53;;
42912;SDS011;50720;54.324;18.558;2023-09-08T10:50:50;7.85;;;5.90;;
42912;SDS011;50720;54.324;18.558;2023-09-08T10:53:37;11.63;;;5.38;;
42912;SDS011;50720;54.324;18.558;2023-09-08T10:56:46;9.75;;;4.30;;
42912;SDS011;50720;54.324;18.558;2023-09-08T10:59:35;12.02;;;4.93;;
42912;SDS011;50720;54.324;18.558;2023-09-08T11:02:34;9.05;;;5.95;;
42912;SDS011;50720;54.324;18.558;2023-09-08T11:05:22;8.35;;;4.60;;
42912;SDS011;50720;54.324;18.558;2023-09-08T11:08:09;9.93;;;4.32;;
42912;SDS011;50720;54.324;18.558;2023-09-08T11:10:58;11.68;;;4.57;;
42912;SDS011;50720;54.324;18.558;2023-09-08T11:13:47;11.30;;;4.10;;
42912;SDS011;50720;54.324;18.558;2023-09-08T11:16:34;10.20;;;4.80;;
42912;SDS011;50720;54.324;18.558;2023-09-08T11:19:22;16.75;;;5.35;;
42912;SDS011;50720;54.324;18.558;2023-09-08T11:22:09;10.05;;;5.78;;
42912;SDS011;50720;54.324;18.558;2023-09-08T11:24:57;7.60;;;3.75;;
42912;SDS011;50720;54.324;18.558;2023-09-08T11:27:44;10.00;;;3.92;;
42912;SDS011;50720;54.324;18.558;2023-09-08T11:30:33;7.15;;;4.20;;
42912;SDS011;50720;54.324;18.558;2023-09-08T11:33:21;14.73;;;5.78;;
42912;SDS011;50720;54.324;18.558;2023-09-08T11:36:12;10.85;;;5.30;;
42912;SDS011;50720;54.324;18.558;2023-09-08T11:39:00;11.13;;;5.07;;
42912;SDS011;50720;54.324;18.558;2023-09-08T11:41:47;18.23;;;7.22;;
42912;SDS011;50720;54.324;18.558;2023-09-08T11:44:34;16.55;;;7.93;;
42912;SDS011;50720;54.324;18.558;2023-09-08T11:47:23;16.42;;;6.13;;
42912;SDS011;50720;54.324;18.558;2023-09-08T11:50:11;16.33;;;6.22;;
42912;SDS011;50720;54.324;18.558;2023-09-08T11:53:00;19.73;;;6.10;;
42912;SDS011;50720;54.324;18.558;2023-09-08T11:55:47;19.10;;;5.93;;
42912;SDS011;50720;54.324;18.558;2023-09-08T11:58:34;21.17;;;7.15;;
42912;SDS011;50720;54.324;18.558;2023-09-08T12:01:21;13.48;;;6.95;;
42912;SDS011;50720;54.324;18.558;2023-09-08T12:04:18;28.50;;;7.18;;
42912;SDS011;50720;54.324;18.558;2023-09-08T12:07:05;16.35;;;6.22;;
42912;SDS011;50720;54.324;18.558;2023-09-08T12:09:54;11.57;;;6.00;;
42912;SDS011;50720;54.324;18.558;2023-09-08T12:12:44;12.80;;;5.70;;
42912;SDS011;50720;54.324;18.558;2023-09-08T12:15:32;9.48;;;5.75;;
42912;SDS011;50720;54.324;18.558;2023-09-08T12:18:28;13.43;;;4.97;;
42912;SDS011;50720;54.324;18.558;2023-09-08T12:21:25;10.05;;;5.70;;
42912;SDS011;50720;54.324;18.558;2023-09-08T12:24:12;13.52;;;4.57;;
42912;SDS011;50720;54.324;18.558;2023-09-08T12:27:01;10.02;;;5.40;;
42912;SDS011;50720;54.324;18.558;2023-09-08T12:29:52;11.55;;;5.60;;
42912;SDS011;50720;54.324;18.558;2023-09-08T12:32:45;8.02;;;4.72;;
42912;SDS011;50720;54.324;18.558;2023-09-08T12:35:33;7.53;;;5.00;;
42912;SDS011;50720;54.324;18.558;2023-09-08T12:38:22;13.13;;;4.25;;
42912;SDS011;50720;54.324;18.558;2023-09-08T12:41:09;11.88;;;5.03;;
42912;SDS011;50720;54.324;18.558;2023-09-08T12:43:56;8.73;;;4.22;;
42912;SDS011;50720;54.324;18.558;2023-09-08T12:46:44;13.55;;;5.18;;
42912;SDS011;50720;54.324;18.558;2023-09-08T12:49:32;12.18;;;5.18;;
42912;SDS011;50720;54.324;18.558;2023-09-08T12:52:18;12.15;;;4.28;;
42912;SDS011;50720;54.324;18.558;2023-09-08T12:55:07;14.02;;;5.30;;
42912;SDS011;50720;54.324;18.558;2023-09-08T12:57:55;12.60;;;5.60;;
42912;SDS011;50720;54.324;18.558;2023-09-08T13:00:42;10.90;;;5.43;;
42912;SDS011;50720;54.324;18.558;2023-09-08T13:03:29;12.40;;;5.40;;
42912;SDS011;50720;54.324;18.558;2023-09-08T13:06:16;8.57;;;4.93;;
42912;SDS011;50720;54.324;18.558;2023-09-08T13:09:03;14.10;;;5.72;;
42912;SDS011;50720;54.324;18.558;2023-09-08T13:11:52;11.10;;;5.32;;
42912;SDS011;50720;54.324;18.558;2023-09-08T13:14:39;18.65;;;5.65;;
42912;SDS011;50720;54.324;18.558;2023-09-08T13:17:26;12.73;;;5.97;;
42912;SDS011;50720;54.324;18.558;2023-09-08T13:20:13;12.68;;;5.90;;
42912;SDS011;50720;54.324;18.558;2023-09-08T13:23:00;18.08;;;5.93;;
42912;SDS011;50720;54.324;18.558;2023-09-08T13:25:47;14.15;;;5.63;;
42912;SDS011;50720;54.324;18.558;2023-09-08T13:28:36;13.25;;;5.25;;
42912;SDS011;50720;54.324;18.558;2023-09-08T13:31:22;13.38;;;5.18;;
42912;SDS011;50720;54.324;18.558;2023-09-08T13:34:10;14.80;;;4.93;;
42912;SDS011;50720;54.324;18.558;2023-09-08T13:36:57;10.23;;;5.45;;
42912;SDS011;50720;54.324;18.558;2023-09-08T13:39:45;18.17;;;5.20;;
42912;SDS011;50720;54.324;18.558;2023-09-08T13:42:31;11.93;;;5.70;;
42912;SDS011;50720;54.324;18.558;2023-09-08T13:45:20;11.57;;;5.00;;
42912;SDS011;50720;54.324;18.558;2023-09-08T13:48:07;14.98;;;5.45;;
42912;SDS011;50720;54.324;18.558;2023-09-08T13:50:54;11.30;;;5.38;;
42912;SDS011;50720;54.324;18.558;2023-09-08T13:53:41;15.25;;;5.10;;
42912;SDS011;50720;54.324;18.558;2023-09-08T13:56:28;10.93;;;5.72;;
42912;SDS011;50720;54.324;18.558;2023-09-08T13:59:15;12.10;;;5.80;;
42912;SDS011;50720;54.324;18.558;2023-09-08T14:02:04;11.25;;;5.97;;
42912;SDS011;50720;54.324;18.558;2023-09-08T14:04:51;10.45;;;5.28;;
42912;SDS011;50720;54.324;18.558;2023-09-08T14:07:38;10.88;;;5.38;;
42912;SDS011;50720;54.324;18.558;2023-09-08T14:10:25;11.30;;;5.07;;
42912;SDS011;50720;54.324;18.558;2023-09-08T14:13:13;12.02;;;5.63;;
42912;SDS011;50720;54.324;18.558;2023-09-08T14:15:59;8.70;;;4.93;;
42912;SDS011;50720;54.324;18.558;2023-09-08T14:18:48;13.93;;;6.47;;
42912;SDS011;50720;54.324;18.558;2023-09-08T14:21:36;6.45;;;4.97;;
42912;SDS011;50720;54.324;18.558;2023-09-08T14:24:24;13.73;;;6.78;;
42912;SDS011;50720;54.324;18.558;2023-09-08T14:27:10;8.68;;;5.50;;
42912;SDS011;50720;54.324;18.558;2023-09-08T14:29:58;11.30;;;5.75;;
42912;SDS011;50720;54.324;18.558;2023-09-08T14:32:45;15.65;;;5.88;;
42912;SDS011;50720;54.324;18.558;2023-09-08T14:35:34;9.48;;;4.88;;
42912;SDS011;50720;54.324;18.558;2023-09-08T14:38:21;10.52;;;4.72;;
42912;SDS011;50720;54.324;18.558;2023-09-08T14:41:09;7.85;;;4.45;;
42912;SDS011;50720;54.324;18.558;2023-09-08T14:43:56;8.48;;;4.88;;
42912;SDS011;50720;54.324;18.558;2023-09-08T14:46:44;8.80;;;4.75;;
42912;SDS011;50720;54.324;18.558;2023-09-08T14:49:31;7.03;;;4.95;;
42912;SDS011;50720;54.324;18.558;2023-09-08T14:52:19;16.35;;;5.20;;
42912;SDS011;50720;54.324;18.558;2023-09-08T14:55:06;9.02;;;5.35;;
42912;SDS011;50720;54.324;18.558;2023-09-08T14:57:54;10.35;;;6.45;;
42912;SDS011;50720;54.324;18.558;2023-09-08T15:00:41;11.93;;;5.00;;
42912;SDS011;50720;54.324;18.558;2023-09-08T15:03:28;15.40;;;4.95;;
42912;SDS011;50720;54.324;18.558;2023-09-08T15:06:16;6.57;;;4.70;;
42912;SDS011;50720;54.324;18.558;2023-09-08T15:09:05;12.50;;;4.38;;
42912;SDS011;50720;54.324;18.558;2023-09-08T15:11:52;8.70;;;4.88;;
42912;SDS011;50720;54.324;18.558;2023-09-08T15:14:39;10.00;;;4.68;;
42912;SDS011;50720;54.324;18.558;2023-09-08T15:17:26;10.15;;;5.28;;
42912;SDS011;50720;54.324;18.558;2023-09-08T15:20:14;11.15;;;5.00;;
42912;SDS011;50720;54.324;18.558;2023-09-08T15:23:01;6.25;;;4.85;;
42912;SDS011;50720;54.324;18.558;2023-09-08T15:25:54;11.43;;;5.32;;
42912;SDS011;50720;54.324;18.558;2023-09-08T15:28:42;17.83;;;5.80;;
42912;SDS011;50720;54.324;18.558;2023-09-08T15:31:29;12.02;;;5.13;;
42912;SDS011;50720;54.324;18.558;2023-09-08T15:34:16;13.75;;;6.43;;
42912;SDS011;50720;54.324;18.558;2023-09-08T15:37:04;10.50;;;4.88;;
42912;SDS011;50720;54.324;18.558;2023-09-08T15:39:51;14.77;;;6.03;;
42912;SDS011;50720;54.324;18.558;2023-09-08T15:42:39;11.70;;;5.68;;
42912;SDS011;50720;54.324;18.558;2023-09-08T15:45:27;8.63;;;4.85;;
42912;SDS011;50720;54.324;18.558;2023-09-08T15:48:15;13.70;;;5.07;;
42912;SDS011;50720;54.324;18.558;2023-09-08T15:51:01;11.65;;;5.15;;
42912;SDS011;50720;54.324;18.558;2023-09-08T15:53:49;10.73;;;5.35;;
42912;SDS011;50720;54.324;18.558;2023-09-08T15:56:36;13.27;;;5.47;;
42912;SDS011;50720;54.324;18.558;2023-09-08T15:59:25;17.17;;;5.57;;
42912;SDS011;50720;54.324;18.558;2023-09-08T16:02:12;9.48;;;4.88;;
42912;SDS011;50720;54.324;18.558;2023-09-08T16:04:59;12.10;;;5.50;;
42912;SDS011;50720;54.324;18.558;2023-09-08T16:07:46;11.85;;;5.25;;
42912;SDS011;50720;54.324;18.558;2023-09-08T16:10:33;10.20;;;4.95;;
42912;SDS011;50720;54.324;18.558;2023-09-08T16:13:20;8.02;;;5.38;;
42912;SDS011;50720;54.324;18.558;2023-09-08T16:16:09;10.25;;;6.00;;
42912;SDS011;50720;54.324;18.558;2023-09-08T16:18:56;11.15;;;6.35;;
42912;SDS011;50720;54.324;18.558;2023-09-08T16:21:43;10.77;;;6.38;;
42912;SDS011;50720;54.324;18.558;2023-09-08T16:24:31;10.05;;;6.20;;
42912;SDS011;50720;54.324;18.558;2023-09-08T16:27:18;11.35;;;6.38;;
42912;SDS011;50720;54.324;18.558;2023-09-08T16:30:05;11.43;;;5.47;;
42912;SDS011;50720;54.324;18.558;2023-09-08T16:32:54;13.48;;;6.28;;
42912;SDS011;50720;54.324;18.558;2023-09-08T16:35:41;12.52;;;5.43;;
42912;SDS011;50720;54.324;18.558;2023-09-08T16:38:28;12.48;;;6.00;;
42912;SDS011;50720;54.324;18.558;2023-09-08T16:41:18;6.90;;;5.53;;